sensor_id;sensor_type;location;lat;lon;timestamp;P1;durP1;ratioP1;P2;durP2;ratioP2
41167;SDS011;26906;45.658;9.272;2022-10-16T05:32:09;42.25;;;34.22;;
41167;SDS011;26906;45.658;9.272;2022-10-16T05:34:36;45.42;;;34.90;;
41167;SDS011;26906;45.658;9.272;2022-10-16T05:37:02;47.85;;;36.60;;
41167;SDS011;26906;45.658;9.272;2022-10-16T05:39:28;40.17;;;34.10;;
41167;SDS011;26906;45.658;9.272;2022-10-16T05:41:54;42.17;;;33.17;;
41167;SDS011;26906;45.658;9.272;2022-10-16T05:44:19;44.78;;;32.80;;
41167;SDS011;26906;45.658;9.272;2022-10-16T05:46:46;43.50;;;32.97;;
41167;SDS011;26906;45.658;9.272;2022-10-16T05:49:12;42.00;;;32.75;;
41167;SDS011;26906;45.658;9.272;2022-10-16T05:51:40;43.28;;;32.25;;
41167;SDS011;26906;45.658;9.272;2022-10-16T05:54:06;42.22;;;32.00;;
41167;SDS011;26906;45.658;9.272;2022-10-16T05:56:32;42.78;;;33.08;;
41167;SDS011;26906;45.658;9.272;2022-10-16T05:58:58;42.65;;;32.67;;
41167;SDS011;26906;45.658;9.272;2022-10-16T06:01:24;43.75;;;32.95;;
41167;SDS011;26906;45.658;9.272;2022-10-16T06:03:50;43.00;;;32.05;;
41167;SDS011;26906;45.658;9.272;2022-10-16T06:06:18;38.25;;;31.23;;
41167;SDS011;26906;45.658;9.272;2022-10-16T06:08:51;43.38;;;31.30;;
41167;SDS011;26906;45.658;9.272;2022-10-16T06:11:22;45.10;;;32.15;;
41167;SDS011;26906;45.658;9.272;2022-10-16T06:13:54;39.20;;;31.88;;
41167;SDS011;26906;45.658;9.272;2022-10-16T06:16:22;44.97;;;32.47;;
41167;SDS011;26906;45.658;9.272;2022-10-16T06:18:50;42.40;;;31.67;;
41167;SDS011;26906;45.658;9.272;2022-10-16T06:21:18;40.13;;;31.08;;
41167;SDS011;26906;45.658;9.272;2022-10-16T06:23:45;39.22;;;30.85;;
41167;SDS011;26906;45.658;9.272;2022-10-16T06:26:12;40.50;;;31.45;;
41167;SDS011;26906;45.658;9.272;2022-10-16T06:28:42;39.28;;;30.48;;
41167;SDS011;26906;45.658;9.272;2022-10-16T06:31:08;35.75;;;29.25;;
41167;SDS011;26906;45.658;9.272;2022-10-16T06:33:36;36.15;;;29.02;;
41167;SDS011;26906;45.658;9.272;2022-10-16T06:36:03;37.20;;;29.73;;
41167;SDS011;26906;45.658;9.272;2022-10-16T06:38:41;40.47;;;31.17;;
41167;SDS011;26906;45.658;9.272;2022-10-16T06:41:11;36.50;;;28.90;;
41167;SDS011;26906;45.658;9.272;2022-10-16T06:43:38;37.80;;;27.55;;
41167;SDS011;26906;45.658;9.272;2022-10-16T06:46:06;39.17;;;28.60;;
41167;SDS011;26906;45.658;9.272;2022-10-16T06:48:33;36.42;;;27.75;;
41167;SDS011;26906;45.658;9.272;2022-10-16T06:51:00;38.28;;;28.70;;
41167;SDS011;26906;45.658;9.272;2022-10-16T06:53:27;38.95;;;30.90;;
41167;SDS011;26906;45.658;9.272;2022-10-16T06:55:58;43.47;;;33.00;;
41167;SDS011;26906;45.658;9.272;2022-10-16T06:58:31;43.80;;;31.83;;
41167;SDS011;26906;45.658;9.272;2022-10-16T07:01:03;39.90;;;31.60;;
41167;SDS011;26906;45.658;9.272;2022-10-16T07:03:30;39.78;;;29.85;;
41167;SDS011;26906;45.658;9.272;2022-10-16T07:05:56;40.20;;;30.45;;
41167;SDS011;26906;45.658;9.272;2022-10-16T07:08:30;38.72;;;31.40;;
41167;SDS011;26906;45.658;9.272;2022-10-16T07:10:58;39.65;;;32.00;;
41167;SDS011;26906;45.658;9.272;2022-10-16T07:13:25;40.28;;;31.40;;
41167;SDS011;26906;45.658;9.272;2022-10-16T07:15:53;43.30;;;32.25;;
41167;SDS011;26906;45.658;9.272;2022-10-16T07:18:18;37.22;;;30.42;;
41167;SDS011;26906;45.658;9.272;2022-10-16T07:20:44;35.33;;;28.17;;
41167;SDS011;26906;45.658;9.272;2022-10-16T07:23:14;33.70;;;26.95;;
41167;SDS011;26906;45.658;9.272;2022-10-16T07:25:40;37.25;;;27.85;;
41167;SDS011;26906;45.658;9.272;2022-10-16T07:28:06;37.05;;;28.40;;
41167;SDS011;26906;45.658;9.272;2022-10-16T07:30:34;38.08;;;28.83;;
41167;SDS011;26906;45.658;9.272;2022-10-16T07:33:02;38.17;;;29.65;;
41167;SDS011;26906;45.658;9.272;2022-10-16T07:35:28;34.60;;;28.63;;
41167;SDS011;26906;45.658;9.272;2022-10-16T07:37:54;38.05;;;29.77;;
41167;SDS011;26906;45.658;9.272;2022-10-16T07:40:19;36.03;;;29.92;;
41167;SDS011;26906;45.658;9.272;2022-10-16T07:42:46;40.03;;;31.10;;
41167;SDS011;26906;45.658;9.272;2022-10-16T07:45:15;40.42;;;30.75;;
41167;SDS011;26906;45.658;9.272;2022-10-16T07:47:40;39.15;;;30.15;;
41167;SDS011;26906;45.658;9.272;2022-10-16T07:50:06;39.03;;;31.33;;
41167;SDS011;26906;45.658;9.272;2022-10-16T07:52:32;43.05;;;30.90;;
41167;SDS011;26906;45.658;9.272;2022-10-16T07:54:58;42.40;;;30.65;;
41167;SDS011;26906;45.658;9.272;2022-10-16T07:57:25;41.30;;;32.08;;
41167;SDS011;26906;45.658;9.272;2022-10-16T07:59:50;36.60;;;29.85;;
41167;SDS011;26906;45.658;9.272;2022-10-16T08:02:16;38.83;;;28.73;;
41167;SDS011;26906;45.658;9.272;2022-10-16T08:04:42;41.08;;;29.52;;
41167;SDS011;26906;45.658;9.272;2022-10-16T08:07:08;39.40;;;28.65;;
41167;SDS011;26906;45.658;9.272;2022-10-16T08:09:34;37.65;;;28.73;;
41167;SDS011;26906;45.658;9.272;2022-10-16T08:12:01;37.65;;;28.50;;
41167;SDS011;26906;45.658;9.272;2022-10-16T08:14:27;37.97;;;28.52;;
41167;SDS011;26906;45.658;9.272;2022-10-16T08:16:53;36.65;;;28.88;;
41167;SDS011;26906;45.658;9.272;2022-10-16T08:19:18;39.10;;;28.98;;
41167;SDS011;26906;45.658;9.272;2022-10-16T08:21:46;34.47;;;27.95;;
41167;SDS011;26906;45.658;9.272;2022-10-16T08:24:12;44.50;;;31.20;;
41167;SDS011;26906;45.658;9.272;2022-10-16T08:26:38;43.08;;;32.30;;
41167;SDS011;26906;45.658;9.272;2022-10-16T08:29:04;50.88;;;35.38;;
41167;SDS011;26906;45.658;9.272;2022-10-16T08:31:35;51.20;;;36.47;;
41167;SDS011;26906;45.658;9.272;2022-10-16T08:34:01;45.40;;;34.33;;
41167;SDS011;26906;45.658;9.272;2022-10-16T08:36:27;53.85;;;36.42;;
41167;SDS011;26906;45.658;9.272;2022-10-16T08:38:53;58.40;;;38.75;;
41167;SDS011;26906;45.658;9.272;2022-10-16T08:44:14;53.90;;;37.53;;
41167;SDS011;26906;45.658;9.272;2022-10-16T08:47:15;58.00;;;41.22;;
41167;SDS011;26906;45.658;9.272;2022-10-16T08:49:59;57.50;;;39.83;;
41167;SDS011;26906;45.658;9.272;2022-10-16T08:52:29;62.22;;;43.00;;
41167;SDS011;26906;45.658;9.272;2022-10-16T08:54:57;78.25;;;49.38;;
41167;SDS011;26906;45.658;9.272;2022-10-16T08:57:24;82.57;;;54.35;;
41167;SDS011;26906;45.658;9.272;2022-10-16T08:59:54;81.85;;;53.20;;
41167;SDS011;26906;45.658;9.272;2022-10-16T09:10:38;78.00;;;51.08;;
41167;SDS011;26906;45.658;9.272;2022-10-16T09:13:17;73.60;;;47.38;;
41167;SDS011;26906;45.658;9.272;2022-10-16T09:18:59;71.55;;;46.20;;
41167;SDS011;26906;45.658;9.272;2022-10-16T09:21:35;68.15;;;46.13;;
41167;SDS011;26906;45.658;9.272;2022-10-16T09:26:40;58.60;;;41.83;;
41167;SDS011;26906;45.658;9.272;2022-10-16T09:29:08;63.30;;;42.63;;
41167;SDS011;26906;45.658;9.272;2022-10-16T09:31:37;58.60;;;41.40;;
41167;SDS011;26906;45.658;9.272;2022-10-16T09:34:03;62.00;;;42.65;;
41167;SDS011;26906;45.658;9.272;2022-10-16T09:36:42;61.20;;;42.85;;
41167;SDS011;26906;45.658;9.272;2022-10-16T09:39:11;61.78;;;42.83;;
41167;SDS011;26906;45.658;9.272;2022-10-16T09:41:38;55.13;;;40.20;;
41167;SDS011;26906;45.658;9.272;2022-10-16T09:44:23;54.78;;;40.95;;
41167;SDS011;26906;45.658;9.272;2022-10-16T09:47:05;61.58;;;44.08;;
41167;SDS011;26906;45.658;9.272;2022-10-16T09:49:50;58.42;;;41.42;;
41167;SDS011;26906;45.658;9.272;2022-10-16T09:52:21;57.40;;;39.47;;
41167;SDS011;26906;45.658;9.272;2022-10-16T09:54:51;54.47;;;39.35;;
41167;SDS011;26906;45.658;9.272;2022-10-16T09:57:25;55.65;;;41.38;;
41167;SDS011;26906;45.658;9.272;2022-10-16T09:59:52;59.13;;;41.25;;
41167;SDS011;26906;45.658;9.272;2022-10-16T10:02:33;64.18;;;42.45;;
41167;SDS011;26906;45.658;9.272;2022-10-16T10:05:02;60.50;;;40.13;;
41167;SDS011;26906;45.658;9.272;2022-10-16T10:07:36;61.65;;;42.05;;
41167;SDS011;26906;45.658;9.272;2022-10-16T10:10:37;68.82;;;45.13;;
41167;SDS011;26906;45.658;9.272;2022-10-16T10:13:20;64.65;;;42.53;;
41167;SDS011;26906;45.658;9.272;2022-10-16T10:15:49;66.72;;;44.53;;
41167;SDS011;26906;45.658;9.272;2022-10-16T10:18:16;67.68;;;45.72;;
41167;SDS011;26906;45.658;9.272;2022-10-16T10:20:46;67.82;;;49.22;;
41167;SDS011;26906;45.658;9.272;2022-10-16T10:23:26;71.10;;;46.15;;
41167;SDS011;26906;45.658;9.272;2022-10-16T10:28:36;70.35;;;45.45;;
41167;SDS011;26906;45.658;9.272;2022-10-16T10:46:42;61.80;;;43.63;;
41167;SDS011;26906;45.658;9.272;2022-10-16T10:50:00;69.18;;;47.30;;
41167;SDS011;26906;45.658;9.272;2022-10-16T10:54:56;70.22;;;46.00;;
41167;SDS011;26906;45.658;9.272;2022-10-16T10:57:28;68.93;;;45.47;;
41167;SDS011;26906;45.658;9.272;2022-10-16T11:08:19;68.18;;;45.85;;
41167;SDS011;26906;45.658;9.272;2022-10-16T11:13:35;61.63;;;43.20;;
41167;SDS011;26906;45.658;9.272;2022-10-16T11:16:23;67.88;;;43.50;;
41167;SDS011;26906;45.658;9.272;2022-10-16T11:19:11;110.28;;;73.53;;
41167;SDS011;26906;45.658;9.272;2022-10-16T11:24:52;99.75;;;65.05;;
41167;SDS011;26906;45.658;9.272;2022-10-16T11:27:39;67.07;;;45.72;;
41167;SDS011;26906;45.658;9.272;2022-10-16T11:30:15;60.70;;;43.75;;
41167;SDS011;26906;45.658;9.272;2022-10-16T11:38:26;62.90;;;44.58;;
41167;SDS011;26906;45.658;9.272;2022-10-16T11:40:53;65.38;;;45.88;;
41167;SDS011;26906;45.658;9.272;2022-10-16T11:43:34;66.28;;;46.33;;
41167;SDS011;26906;45.658;9.272;2022-10-16T11:46:23;67.47;;;45.40;;
41167;SDS011;26906;45.658;9.272;2022-10-16T11:48:57;67.13;;;46.65;;
41167;SDS011;26906;45.658;9.272;2022-10-16T11:51:36;62.90;;;44.60;;
41167;SDS011;26906;45.658;9.272;2022-10-16T11:57:01;64.63;;;44.40;;
41167;SDS011;26906;45.658;9.272;2022-10-16T11:59:46;66.45;;;45.38;;
41167;SDS011;26906;45.658;9.272;2022-10-16T12:08:15;60.20;;;38.15;;
41167;SDS011;26906;45.658;9.272;2022-10-16T12:10:44;70.07;;;47.35;;
41167;SDS011;26906;45.658;9.272;2022-10-16T12:18:40;64.97;;;46.40;;
41167;SDS011;26906;45.658;9.272;2022-10-16T12:21:08;65.13;;;43.53;;
41167;SDS011;26906;45.658;9.272;2022-10-16T12:23:45;61.55;;;44.30;;
41167;SDS011;26906;45.658;9.272;2022-10-16T12:29:12;65.07;;;44.95;;
41167;SDS011;26906;45.658;9.272;2022-10-16T12:31:49;60.33;;;43.67;;
41167;SDS011;26906;45.658;9.272;2022-10-16T12:34:29;70.85;;;45.35;;
41167;SDS011;26906;45.658;9.272;2022-10-16T12:37:18;68.38;;;46.85;;
41167;SDS011;26906;45.658;9.272;2022-10-16T12:39:48;68.30;;;45.20;;
41167;SDS011;26906;45.658;9.272;2022-10-16T12:44:54;62.72;;;44.97;;
41167;SDS011;26906;45.658;9.272;2022-10-16T12:47:35;63.05;;;46.42;;
41167;SDS011;26906;45.658;9.272;2022-10-16T12:50:03;64.55;;;44.95;;
41167;SDS011;26906;45.658;9.272;2022-10-16T12:52:50;62.95;;;44.28;;
41167;SDS011;26906;45.658;9.272;2022-10-16T12:55:16;70.30;;;44.85;;
41167;SDS011;26906;45.658;9.272;2022-10-16T13:01:34;63.42;;;44.95;;
41167;SDS011;26906;45.658;9.272;2022-10-16T13:03:53;63.20;;;45.20;;
41167;SDS011;26906;45.658;9.272;2022-10-16T13:09:17;69.43;;;47.75;;
41167;SDS011;26906;45.658;9.272;2022-10-16T13:17:08;63.55;;;44.72;;
41167;SDS011;26906;45.658;9.272;2022-10-16T13:19:59;76.72;;;49.72;;
41167;SDS011;26906;45.658;9.272;2022-10-16T13:22:41;81.35;;;51.50;;
41167;SDS011;26906;45.658;9.272;2022-10-16T13:30:28;72.93;;;50.47;;
41167;SDS011;26906;45.658;9.272;2022-10-16T13:33:04;77.40;;;52.17;;
41167;SDS011;26906;45.658;9.272;2022-10-16T13:35:53;77.63;;;52.67;;
41167;SDS011;26906;45.658;9.272;2022-10-16T13:38:22;74.63;;;51.05;;
41167;SDS011;26906;45.658;9.272;2022-10-16T13:40:56;73.25;;;51.85;;
41167;SDS011;26906;45.658;9.272;2022-10-16T13:43:31;67.70;;;44.88;;
41167;SDS011;26906;45.658;9.272;2022-10-16T13:46:12;68.22;;;48.63;;
41167;SDS011;26906;45.658;9.272;2022-10-16T13:48:42;69.28;;;48.65;;
41167;SDS011;26906;45.658;9.272;2022-10-16T13:51:16;67.05;;;48.03;;
41167;SDS011;26906;45.658;9.272;2022-10-16T13:53:43;72.43;;;47.78;;
41167;SDS011;26906;45.658;9.272;2022-10-16T13:56:11;66.32;;;46.75;;
41167;SDS011;26906;45.658;9.272;2022-10-16T13:58:43;65.97;;;46.65;;
41167;SDS011;26906;45.658;9.272;2022-10-16T14:03:41;65.18;;;46.22;;
41167;SDS011;26906;45.658;9.272;2022-10-16T14:06:11;64.18;;;45.90;;
41167;SDS011;26906;45.658;9.272;2022-10-16T14:08:50;65.25;;;44.55;;
41167;SDS011;26906;45.658;9.272;2022-10-16T14:11:48;60.72;;;44.55;;
41167;SDS011;26906;45.658;9.272;2022-10-16T14:14:16;56.85;;;40.88;;
41167;SDS011;26906;45.658;9.272;2022-10-16T14:16:45;67.43;;;46.47;;
41167;SDS011;26906;45.658;9.272;2022-10-16T14:19:14;61.30;;;43.25;;
41167;SDS011;26906;45.658;9.272;2022-10-16T14:21:53;60.75;;;42.40;;
41167;SDS011;26906;45.658;9.272;2022-10-16T14:24:30;63.15;;;44.50;;
41167;SDS011;26906;45.658;9.272;2022-10-16T14:27:00;62.60;;;44.08;;
41167;SDS011;26906;45.658;9.272;2022-10-16T14:29:27;61.85;;;41.70;;
41167;SDS011;26906;45.658;9.272;2022-10-16T14:31:57;57.15;;;41.40;;
41167;SDS011;26906;45.658;9.272;2022-10-16T14:34:31;58.58;;;40.88;;
41167;SDS011;26906;45.658;9.272;2022-10-16T14:37:08;59.53;;;41.35;;
41167;SDS011;26906;45.658;9.272;2022-10-16T14:39:51;61.33;;;40.53;;
41167;SDS011;26906;45.658;9.272;2022-10-16T14:42:18;57.75;;;39.47;;
41167;SDS011;26906;45.658;9.272;2022-10-16T14:44:45;56.88;;;39.85;;
41167;SDS011;26906;45.658;9.272;2022-10-16T14:47:13;58.42;;;40.38;;
41167;SDS011;26906;45.658;9.272;2022-10-16T14:49:47;61.08;;;41.72;;
41167;SDS011;26906;45.658;9.272;2022-10-16T14:52:13;57.38;;;40.95;;
41167;SDS011;26906;45.658;9.272;2022-10-16T14:54:42;58.40;;;41.05;;
41167;SDS011;26906;45.658;9.272;2022-10-16T14:57:18;55.88;;;39.20;;
41167;SDS011;26906;45.658;9.272;2022-10-16T14:59:46;57.05;;;39.05;;
41167;SDS011;26906;45.658;9.272;2022-10-16T15:05:10;54.45;;;39.75;;
41167;SDS011;26906;45.658;9.272;2022-10-16T15:07:47;60.83;;;40.33;;
41167;SDS011;26906;45.658;9.272;2022-10-16T15:10:14;61.20;;;40.55;;
41167;SDS011;26906;45.658;9.272;2022-10-16T15:12:41;60.72;;;40.28;;
41167;SDS011;26906;45.658;9.272;2022-10-16T15:17:51;61.17;;;43.17;;
41167;SDS011;26906;45.658;9.272;2022-10-16T15:20:20;58.20;;;41.28;;
41167;SDS011;26906;45.658;9.272;2022-10-16T15:22:47;55.95;;;40.60;;
41167;SDS011;26906;45.658;9.272;2022-10-16T15:27:53;65.50;;;47.35;;
41167;SDS011;26906;45.658;9.272;2022-10-16T15:30:28;67.35;;;47.17;;
41167;SDS011;26906;45.658;9.272;2022-10-16T15:32:54;67.63;;;47.28;;
41167;SDS011;26906;45.658;9.272;2022-10-16T15:35:21;71.55;;;48.42;;
41167;SDS011;26906;45.658;9.272;2022-10-16T15:37:47;70.85;;;46.83;;
41167;SDS011;26906;45.658;9.272;2022-10-16T15:40:15;68.85;;;47.17;;
41167;SDS011;26906;45.658;9.272;2022-10-16T15:42:42;67.30;;;47.38;;
41167;SDS011;26906;45.658;9.272;2022-10-16T15:45:09;67.95;;;46.85;;
41167;SDS011;26906;45.658;9.272;2022-10-16T15:47:36;69.72;;;48.95;;
41167;SDS011;26906;45.658;9.272;2022-10-16T15:50:03;68.07;;;47.38;;
41167;SDS011;26906;45.658;9.272;2022-10-16T15:52:30;72.00;;;46.15;;
41167;SDS011;26906;45.658;9.272;2022-10-16T15:54:57;62.08;;;46.05;;
41167;SDS011;26906;45.658;9.272;2022-10-16T15:57:23;66.85;;;46.47;;
41167;SDS011;26906;45.658;9.272;2022-10-16T15:59:53;66.38;;;46.55;;
41167;SDS011;26906;45.658;9.272;2022-10-16T16:02:20;65.38;;;46.83;;
41167;SDS011;26906;45.658;9.272;2022-10-16T16:04:46;72.60;;;47.50;;
41167;SDS011;26906;45.658;9.272;2022-10-16T16:07:11;74.28;;;48.17;;
41167;SDS011;26906;45.658;9.272;2022-10-16T16:09:37;67.78;;;45.38;;
41167;SDS011;26906;45.658;9.272;2022-10-16T16:12:04;66.47;;;45.80;;
41167;SDS011;26906;45.658;9.272;2022-10-16T16:14:30;68.50;;;47.88;;
41167;SDS011;26906;45.658;9.272;2022-10-16T16:16:56;66.75;;;47.78;;
41167;SDS011;26906;45.658;9.272;2022-10-16T16:19:23;70.95;;;47.75;;
41167;SDS011;26906;45.658;9.272;2022-10-16T16:21:49;66.20;;;48.13;;
41167;SDS011;26906;45.658;9.272;2022-10-16T16:24:15;70.40;;;46.67;;
41167;SDS011;26906;45.658;9.272;2022-10-16T16:26:41;67.07;;;47.22;;
41167;SDS011;26906;45.658;9.272;2022-10-16T16:29:11;70.95;;;46.22;;
41167;SDS011;26906;45.658;9.272;2022-10-16T16:31:39;67.38;;;46.30;;
41167;SDS011;26906;45.658;9.272;2022-10-16T16:34:06;67.53;;;45.65;;
41167;SDS011;26906;45.658;9.272;2022-10-16T16:36:32;65.95;;;44.88;;
41167;SDS011;26906;45.658;9.272;2022-10-16T16:38:58;65.18;;;44.30;;
41167;SDS011;26906;45.658;9.272;2022-10-16T16:41:28;68.85;;;46.22;;
41167;SDS011;26906;45.658;9.272;2022-10-16T16:43:55;62.85;;;45.63;;
41167;SDS011;26906;45.658;9.272;2022-10-16T16:46:33;69.93;;;45.05;;
41167;SDS011;26906;45.658;9.272;2022-10-16T16:49:02;69.97;;;45.25;;
41167;SDS011;26906;45.658;9.272;2022-10-16T16:51:28;64.20;;;43.67;;
41167;SDS011;26906;45.658;9.272;2022-10-16T16:53:54;72.60;;;47.00;;
41167;SDS011;26906;45.658;9.272;2022-10-16T16:56:21;75.72;;;50.08;;
41167;SDS011;26906;45.658;9.272;2022-10-16T16:58:48;73.03;;;47.63;;
41167;SDS011;26906;45.658;9.272;2022-10-16T17:01:15;72.15;;;50.05;;
41167;SDS011;26906;45.658;9.272;2022-10-16T17:03:42;70.55;;;48.58;;
41167;SDS011;26906;45.658;9.272;2022-10-16T17:06:09;77.00;;;49.13;;
41167;SDS011;26906;45.658;9.272;2022-10-16T17:08:36;66.78;;;45.35;;
41167;SDS011;26906;45.658;9.272;2022-10-16T17:11:03;74.90;;;49.33;;
41167;SDS011;26906;45.658;9.272;2022-10-16T17:13:31;69.50;;;45.10;;
41167;SDS011;26906;45.658;9.272;2022-10-16T17:16:03;67.75;;;47.92;;
41167;SDS011;26906;45.658;9.272;2022-10-16T17:18:32;69.65;;;47.88;;
41167;SDS011;26906;45.658;9.272;2022-10-16T17:20:59;75.72;;;49.08;;
41167;SDS011;26906;45.658;9.272;2022-10-16T17:23:33;74.00;;;48.70;;
41167;SDS011;26906;45.658;9.272;2022-10-16T17:26:07;71.07;;;48.90;;
41167;SDS011;26906;45.658;9.272;2022-10-16T17:28:35;79.18;;;53.58;;
41167;SDS011;26906;45.658;9.272;2022-10-16T17:31:18;77.65;;;54.78;;
41167;SDS011;26906;45.658;9.272;2022-10-16T17:33:48;83.28;;;56.22;;
41167;SDS011;26906;45.658;9.272;2022-10-16T17:36:13;81.75;;;57.95;;
41167;SDS011;26906;45.658;9.272;2022-10-16T17:38:40;73.35;;;51.03;;
41167;SDS011;26906;45.658;9.272;2022-10-16T17:41:17;73.28;;;50.88;;
41167;SDS011;26906;45.658;9.272;2022-10-16T17:43:45;80.93;;;49.70;;
41167;SDS011;26906;45.658;9.272;2022-10-16T17:46:11;73.68;;;49.55;;
41167;SDS011;26906;45.658;9.272;2022-10-16T17:48:45;76.30;;;49.47;;
41167;SDS011;26906;45.658;9.272;2022-10-16T17:51:14;76.35;;;51.28;;
41167;SDS011;26906;45.658;9.272;2022-10-16T17:53:41;71.15;;;48.75;;
41167;SDS011;26906;45.658;9.272;2022-10-16T17:56:15;70.40;;;47.92;;
41167;SDS011;26906;45.658;9.272;2022-10-16T17:58:41;78.65;;;52.92;;
41167;SDS011;26906;45.658;9.272;2022-10-16T18:01:12;85.15;;;54.58;;
41167;SDS011;26906;45.658;9.272;2022-10-16T18:03:52;80.30;;;52.33;;
41167;SDS011;26906;45.658;9.272;2022-10-16T18:06:19;85.15;;;55.70;;
41167;SDS011;26906;45.658;9.272;2022-10-16T18:08:45;77.10;;;53.45;;
41167;SDS011;26906;45.658;9.272;2022-10-16T18:11:11;70.55;;;50.50;;
41167;SDS011;26906;45.658;9.272;2022-10-16T18:13:37;74.22;;;50.22;;
41167;SDS011;26906;45.658;9.272;2022-10-16T18:16:04;74.35;;;50.63;;
41167;SDS011;26906;45.658;9.272;2022-10-16T18:18:36;74.40;;;51.70;;
41167;SDS011;26906;45.658;9.272;2022-10-16T18:21:03;73.30;;;51.67;;
41167;SDS011;26906;45.658;9.272;2022-10-16T18:23:32;75.15;;;50.97;;
41167;SDS011;26906;45.658;9.272;2022-10-16T18:26:00;72.32;;;52.08;;
41167;SDS011;26906;45.658;9.272;2022-10-16T18:28:27;78.90;;;52.50;;
41167;SDS011;26906;45.658;9.272;2022-10-16T18:30:53;79.45;;;53.40;;
41167;SDS011;26906;45.658;9.272;2022-10-16T18:33:23;76.30;;;53.58;;
41167;SDS011;26906;45.658;9.272;2022-10-16T18:35:49;80.65;;;53.05;;
41167;SDS011;26906;45.658;9.272;2022-10-16T18:38:15;77.05;;;51.70;;
41167;SDS011;26906;45.658;9.272;2022-10-16T18:40:41;77.22;;;51.20;;
41167;SDS011;26906;45.658;9.272;2022-10-16T18:43:07;76.95;;;53.67;;
41167;SDS011;26906;45.658;9.272;2022-10-16T18:45:33;73.70;;;48.88;;
41167;SDS011;26906;45.658;9.272;2022-10-16T18:47:59;69.85;;;48.55;;
41167;SDS011;26906;45.658;9.272;2022-10-16T18:50:24;77.38;;;51.35;;
41167;SDS011;26906;45.658;9.272;2022-10-16T18:52:50;80.90;;;52.92;;
41167;SDS011;26906;45.658;9.272;2022-10-16T18:55:16;76.05;;;52.05;;
41167;SDS011;26906;45.658;9.272;2022-10-16T18:57:41;79.40;;;55.33;;
41167;SDS011;26906;45.658;9.272;2022-10-16T19:00:07;73.60;;;49.17;;
41167;SDS011;26906;45.658;9.272;2022-10-16T19:02:33;80.10;;;55.13;;
41167;SDS011;26906;45.658;9.272;2022-10-16T19:04:59;84.32;;;56.75;;
41167;SDS011;26906;45.658;9.272;2022-10-16T19:07:26;69.97;;;49.88;;
41167;SDS011;26906;45.658;9.272;2022-10-16T19:09:51;74.38;;;49.83;;
41167;SDS011;26906;45.658;9.272;2022-10-16T19:12:18;74.97;;;49.92;;
41167;SDS011;26906;45.658;9.272;2022-10-16T19:14:46;75.97;;;52.42;;
41167;SDS011;26906;45.658;9.272;2022-10-16T19:17:13;76.88;;;51.80;;
41167;SDS011;26906;45.658;9.272;2022-10-16T19:19:38;79.57;;;51.50;;
41167;SDS011;26906;45.658;9.272;2022-10-16T19:22:04;70.68;;;50.90;;
41167;SDS011;26906;45.658;9.272;2022-10-16T19:27:08;76.30;;;52.63;;
41167;SDS011;26906;45.658;9.272;2022-10-16T19:29:34;74.07;;;51.17;;
41167;SDS011;26906;45.658;9.272;2022-10-16T19:32:00;74.05;;;51.20;;
41167;SDS011;26906;45.658;9.272;2022-10-16T19:34:27;73.72;;;51.40;;
41167;SDS011;26906;45.658;9.272;2022-10-16T19:36:54;74.60;;;51.47;;
